Amberson, PA (17210)

8:26 PM EST on January 26, 2015 (GMT -0500)
Chambersburg | Change Station
CLOSE
Current Station
Personal Weather Station
Location: Chambersburg, PA
Elevation: 714 ft
Nearby Weather Stations
Active Advisory: Winter Weather Advisory Active Notice: Public Information Statement

Elev 714 ft 39.96 °N, 77.66 °W | Updated 9 seconds ago

Snow
Snow
23.5 °F
Feels Like 13 °F
N
9.8
Wind Variable Wind from North
Gusts 9.8 mph

Today
High -- | Low -- °F
--% Chance of Precip.
Yesterday
High -- | Low -- °F
Precip. -- in
7:24 AM 5:21 PM
Waxing Crescent, 48% visible
Pressure 29.84 in
Visibility 1.2 miles
Clouds Mostly Cloudy 1800 ft
Overcast 2600 ft
Windchill 13 °F
Dew Point 23 °F
Humidity 99%
Rainfall 0.00 in
Snow Depth Not available.
UV 0 out of 12
Pollen .10 out of 12
Air Quality Not available.
Flu Activity Not available.
METAR KHGR 270053Z 34008KT 1 1/4SM -SN BR BKN018 OVC026 M04/M06 A2979 RMK AO2 SLP105 P0001 T10441061

More Conditions Fewer Conditions

Pressure 29.84 in
Visibility 1.2 miles
Clouds Mostly Cloudy 1800 ft
Overcast 2600 ft
Windchill 13 °F
Dew Point 23 °F
Humidity 99%
Rainfall 0.00 in
Snow Depth Not available.
UV 0 out of 12
Pollen .10 out of 12
Air Quality Not available.
Flu Activity Not available.
METAR KHGR 270053Z 34008KT 1 1/4SM -SN BR BKN018 OVC026 M04/M06 A2979 RMK AO2 SLP105 P0001 T10441061

More Conditions Fewer Conditions

Nowcast | as of 7:19 PM EST on January 26, 2015

Bands of snow...some heavy...will be across much of the region through 11 PM. The heaviest snow will be mainly east of Route 219 and west of a Tamaqua...Lancaster line. The combination of cold temperatures and the heavy rate of snow accumulation will likely result in poor travel conditions. Persons traveling this evening should allow extra travel time and use caution.

×

10-Day Weather Forecast

Almanac

Astronomy

Jan. 26, 2015 Rise Set
Actual Time
Civil Twilight
Nautical Twilight
Astronomical Twilight
Moon
Length of Visible Light
Length of Day
Tomorrow will be .
, % of the Moon is Illuminated

Today's Extremes

State Highs State Lows

Community

WunderPhotos

Upload Photos

1,790,445 photos uploaded!

WunderBlogs® & News

Nearby

Air Quality

  Air Quality AQ Index Pollutant
Not available.

Snow Depth

Station Depth Elevation

Earthquake Activity

City Distance Mag. Time & Date
Minimum magnitude displayed is 2.5.

Coastal Water Temperatures

Place Temperature

Nearby Weather Stations